Time;durP1;ratioP1;P1;durP2;ratioP2;P2;SDS_P1;SDS_P2;PMS_P1;PMS_P2;Temp;Humidity;BMP_temperature;BMP_pressure;BME280_temperature;BME280_humidity;BME280_pressure;Samples;Min_cycle;Max_cycle;Signal;HPM_P1;HPM_P2
2022/05/13 00:01:18;;;;;;;15.55;4.38;;;;;;;12.06;88.92;101916.28;7373676;19;20500;-76
2022/05/13 00:03:48;;;;;;;15.02;4.40;;;;;;;12.08;90.37;101916.31;7371401;19;20657;-76
2022/05/13 00:06:18;;;;;;;19.45;4.75;;;;;;;12.05;89.54;101914.50;7372971;19;20039;-76
2022/05/13 00:08:49;;;;;;;19.15;4.85;;;;;;;12.07;90.62;101915.44;7371481;19;20007;-76
2022/05/13 00:11:21;;;;;;;20.13;5.10;;;;;;;12.11;90.92;101922.53;7372129;19;20014;-76
2022/05/13 00:13:51;;;;;;;27.40;5.47;;;;;;;12.13;92.05;101917.31;7371490;19;20022;-76
2022/05/13 00:16:21;;;;;;;17.00;4.72;;;;;;;12.10;91.80;101920.75;7373937;19;20051;-76
2022/05/13 00:18:51;;;;;;;19.10;4.70;;;;;;;12.09;94.49;101911.09;7370300;19;20502;-76
2022/05/13 00:21:21;;;;;;;16.52;4.40;;;;;;;12.09;94.76;101908.47;7369016;19;20014;-76
2022/05/13 00:23:51;;;;;;;19.83;4.88;;;;;;;12.21;94.51;101906.97;7370965;19;20014;-76
2022/05/13 00:26:24;;;;;;;19.48;5.28;;;;;;;12.15;95.71;101904.22;7372476;19;20007;-75
2022/05/13 00:28:54;;;;;;;21.52;5.32;;;;;;;12.19;95.56;101911.31;7370288;19;20014;-75
2022/05/13 00:31:24;;;;;;;24.15;7.30;;;;;;;12.19;95.86;101904.31;7373316;19;20010;-76
2022/05/13 00:33:54;;;;;;;20.60;5.07;;;;;;;12.21;96.58;101909.63;7377308;19;20029;-76
2022/05/13 00:36:24;;;;;;;21.40;5.85;;;;;;;12.13;97.77;101916.44;7372981;19;20094;-76
2022/05/13 00:38:55;;;;;;;25.13;5.28;;;;;;;12.16;97.07;101916.50;7370575;19;20435;-77
2022/05/13 00:41:27;;;;;;;18.80;5.38;;;;;;;12.16;97.59;101909.50;7371642;19;20010;-76
2022/05/13 00:43:57;;;;;;;27.95;6.07;;;;;;;12.22;98.32;101903.50;7369117;19;20014;-77
2022/05/13 00:46:29;;;;;;;29.05;5.68;;;;;;;12.19;98.34;101901.69;7370395;19;20014;-76
2022/05/13 00:49:02;;;;;;;19.05;5.68;;;;;;;12.21;98.53;101896.47;7372075;19;20559;-76
2022/05/13 00:51:36;;;;;;;27.90;5.93;;;;;;;12.24;97.73;101896.53;7373895;19;20007;-76
2022/05/13 00:54:08;;;;;;;23.00;6.53;;;;;;;12.14;99.62;101900.69;7367624;19;20790;-76
2022/05/13 00:56:42;;;;;;;21.67;6.53;;;;;;;12.22;99.02;101895.63;7375461;19;20102;-77
2022/05/13 00:59:16;;;;;;;24.92;5.93;;;;;;;12.23;99.22;101903.53;7367460;19;20057;-76
2022/05/13 01:01:48;;;;;;;25.33;5.43;;;;;;;12.20;99.14;101892.94;7371167;19;20014;-77
2022/05/13 01:04:21;;;;;;;26.65;6.35;;;;;;;12.19;98.99;101891.16;7371959;19;20014;-76
2022/05/13 01:06:54;;;;;;;27.13;5.70;;;;;;;12.25;99.16;101893.06;7374604;19;20122;-76
2022/05/13 01:09:25;;;;;;;22.60;5.60;;;;;;;12.25;99.02;101893.06;7376715;19;20011;-75
2022/05/13 01:12:01;;;;;;;20.23;5.80;;;;;;;12.28;98.96;101895.75;7376256;19;20015;-76
2022/05/13 01:14:37;;;;;;;21.77;6.03;;;;;;;12.26;99.08;101890.47;7377400;19;20081;-75
2022/05/13 01:20:02;;;;;;;32.65;6.45;;;;;;;12.25;98.84;101898.31;7377755;19;20010;-69
2022/05/13 01:22:42;;;;;;;21.10;4.80;;;;;;;12.29;98.07;101892.28;7375509;19;20021;-69
2022/05/13 01:25:14;;;;;;;17.50;4.38;;;;;;;12.29;98.19;101894.91;7373265;19;20010;-69
2022/05/13 01:27:45;;;;;;;25.55;5.20;;;;;;;12.29;97.86;101889.66;7371786;19;20098;-69
2022/05/13 01:30:18;;;;;;;18.48;4.47;;;;;;;12.33;97.54;101888.84;7370550;19;20049;-69
2022/05/13 01:32:48;;;;;;;18.97;4.57;;;;;;;12.30;97.83;101894.06;7369422;19;20018;-70
2022/05/13 01:35:18;;;;;;;17.23;4.10;;;;;;;12.35;97.39;101890.66;7370485;19;20972;-69
2022/05/13 01:37:51;;;;;;;12.93;4.57;;;;;;;12.29;97.89;101889.66;7366542;19;20043;-69
2022/05/13 01:40:23;;;;;;;13.07;4.63;;;;;;;12.31;97.89;101893.19;7370489;19;20006;-69
2022/05/13 01:42:53;;;;;;;13.98;4.20;;;;;;;12.31;98.03;101895.81;7370487;19;20031;-69
2022/05/13 01:45:23;;;;;;;18.85;5.07;;;;;;;12.28;97.59;101887.88;7370030;19;20379;-70
2022/05/13 01:47:53;;;;;;;21.02;4.72;;;;;;;12.31;97.28;101882.69;7369227;19;20010;-77
2022/05/13 01:50:23;;;;;;;16.98;4.22;;;;;;;12.37;96.91;101894.22;7370087;19;20037;-75
2022/05/13 01:52:56;;;;;;;19.20;5.18;;;;;;;12.31;97.10;101887.94;7366180;19;20006;-69
2022/05/13 01:55:26;;;;;;;13.98;4.78;;;;;;;12.39;95.83;101889.88;7373114;19;20964;-68
2022/05/13 01:57:56;;;;;;;15.73;4.20;;;;;;;12.36;95.05;101892.44;7374335;19;20019;-77
2022/05/13 02:00:27;;;;;;;15.60;3.72;;;;;;;12.41;94.32;101900.44;7368749;19;20245;-75
2022/05/13 02:05:40;;;;;;;12.50;3.95;;;;;;;12.38;93.20;101884.59;7371536;19;20015;-76
2022/05/13 02:08:13;;;;;;;12.85;4.25;;;;;;;12.35;91.65;101884.53;7371424;19;20003;-76
2022/05/13 02:10:43;;;;;;;15.88;4.32;;;;;;;12.31;90.93;101872.16;7367754;19;20014;-76
2022/05/13 02:13:14;;;;;;;8.90;3.30;;;;;;;12.31;89.32;101885.31;7372355;19;20090;-76
2022/05/13 02:15:45;;;;;;;11.75;3.97;;;;;;;12.28;88.89;101878.22;7369943;19;20011;-76
2022/05/13 02:18:15;;;;;;;12.82;4.13;;;;;;;12.28;86.65;101872.97;7370719;19;20019;-76
2022/05/13 02:20:47;;;;;;;14.23;3.95;;;;;;;12.32;86.82;101876.56;7366775;19;20053;-76
2022/05/13 02:23:21;;;;;;;16.58;3.95;;;;;;;12.25;87.06;101874.66;7369162;19;20021;-76
2022/05/13 02:25:54;;;;;;;10.43;3.13;;;;;;;12.24;87.35;101886.03;7368526;19;20111;-76
2022/05/13 02:28:24;;;;;;;14.88;3.95;;;;;;;12.21;87.92;101881.56;7367725;19;20002;-76
2022/05/13 02:30:54;;;;;;;11.18;3.58;;;;;;;12.14;87.97;101879.66;7369725;19;20010;-76
2022/05/13 02:33:24;;;;;;;8.90;3.40;;;;;;;12.15;88.47;101886.69;7369367;19;20011;-76
2022/05/13 02:35:54;;;;;;;11.23;3.65;;;;;;;12.09;88.71;101882.19;7367285;19;20523;-76
2022/05/13 02:38:28;;;;;;;19.13;3.80;;;;;;;12.07;89.24;101878.63;7369892;19;20053;-69
2022/05/13 02:43:42;;;;;;;19.38;4.40;;;;;;;11.98;89.63;101862.63;7374117;19;20014;-75
2022/05/13 02:46:13;;;;;;;11.65;3.67;;;;;;;11.95;90.25;101853.78;7375701;19;20448;-75
2022/05/13 02:48:43;;;;;;;9.90;3.58;;;;;;;11.94;90.73;101860.78;7375982;19;20081;-75
2022/05/13 02:51:12;;;;;;;14.20;4.15;;;;;;;11.88;90.86;101858.00;7377996;19;20007;-75
2022/05/13 02:53:46;;;;;;;13.38;4.13;;;;;;;11.87;90.75;101860.59;7372663;19;20015;-75
2022/05/13 02:56:16;;;;;;;12.05;3.20;;;;;;;11.81;91.10;101860.44;7377286;19;20041;-76
2022/05/13 02:58:47;;;;;;;11.10;4.18;;;;;;;11.77;91.03;101859.47;7374445;19;20015;-75
2022/05/13 03:01:19;;;;;;;10.00;3.30;;;;;;;11.76;91.12;101862.94;7373941;19;20428;-76
2022/05/13 03:03:52;;;;;;;7.28;3.25;;;;;;;11.70;91.23;101858.41;7374255;19;20006;-77
2022/05/13 03:06:23;;;;;;;9.45;3.40;;;;;;;11.73;91.20;101866.38;7375170;19;20439;-75
2022/05/13 03:08:56;;;;;;;10.57;4.05;;;;;;;11.66;91.23;101869.69;7374803;19;20366;-76
2022/05/13 03:11:26;;;;;;;16.38;4.00;;;;;;;11.64;91.15;101863.50;7375797;19;20252;-75
2022/05/13 03:13:56;;;;;;;8.20;3.35;;;;;;;11.61;91.73;101859.91;7378643;19;20020;-76
2022/05/13 03:16:30;;;;;;;10.18;3.55;;;;;;;11.61;91.44;101865.16;7375823;19;20575;-75
2022/05/13 03:19:02;;;;;;;11.25;3.67;;;;;;;11.55;91.33;101859.75;7375677;19;20010;-76
2022/05/13 03:21:32;;;;;;;9.90;3.17;;;;;;;11.55;91.85;101846.63;7374498;19;20487;-76
2022/05/13 03:24:05;;;;;;;7.70;3.10;;;;;;;11.49;92.11;101855.22;7376185;19;20523;-77
2022/05/13 03:26:35;;;;;;;9.68;3.20;;;;;;;11.50;92.04;101856.13;7373072;19;20017;-70
2022/05/13 03:29:05;;;;;;;8.88;3.30;;;;;;;11.47;92.34;101867.44;7377527;19;20006;-69
2022/05/13 03:31:36;;;;;;;11.77;3.78;;;;;;;11.42;93.72;101872.59;7374355;19;20366;-70
2022/05/13 03:34:06;;;;;;;12.82;3.33;;;;;;;11.42;93.47;101879.59;7375135;19;20013;-76
2022/05/13 03:36:36;;;;;;;9.13;3.20;;;;;;;11.43;93.85;101886.63;7376839;19;20530;-77
2022/05/13 03:39:08;;;;;;;7.32;3.08;;;;;;;11.42;94.01;101885.75;7380510;19;20098;-76
2022/05/13 03:41:38;;;;;;;15.45;4.00;;;;;;;11.42;94.52;101890.09;7370783;19;20408;-69
2022/05/13 03:44:08;;;;;;;14.55;4.15;;;;;;;11.43;94.51;101886.63;7378736;19;20443;-70
2022/05/13 03:46:38;;;;;;;13.85;4.20;;;;;;;11.43;94.72;101879.63;7375714;19;20311;-70
2022/05/13 03:49:08;;;;;;;10.10;3.42;;;;;;;11.45;94.83;101879.66;7373626;19;20457;-70
2022/05/13 03:51:38;;;;;;;15.02;3.90;;;;;;;11.41;95.17;101880.44;7373064;19;20302;-69
2022/05/13 03:54:11;;;;;;;17.38;4.90;;;;;;;11.41;95.21;101889.22;7370656;19;20478;-69
2022/05/13 03:56:41;;;;;;;9.85;3.60;;;;;;;11.42;95.09;101891.00;7378779;19;20039;-69
2022/05/13 03:59:11;;;;;;;9.55;3.75;;;;;;;11.42;95.02;101890.09;7378027;19;20007;-69
2022/05/13 04:01:41;;;;;;;13.27;4.53;;;;;;;11.48;94.33;101899.00;7377239;19;20048;-69
2022/05/13 04:04:11;;;;;;;11.10;3.22;;;;;;;11.48;94.23;101885.88;7373770;19;20373;-69
2022/05/13 04:09:26;;;;;;;9.55;3.60;;;;;;;11.47;94.34;101894.59;7375683;19;20030;-69
2022/05/13 04:17:20;;;;;;;9.43;3.35;;;;;;;11.42;94.53;101888.38;7371746;19;20019;-75
2022/05/13 04:19:50;;;;;;;10.13;3.72;;;;;;;11.42;94.55;101891.00;7373355;19;20018;-77
2022/05/13 04:22:20;;;;;;;8.55;3.85;;;;;;;11.43;94.72;101899.75;7372936;19;20010;-69
2022/05/13 04:24:54;;;;;;;8.95;3.45;;;;;;;11.44;95.03;101894.50;7373927;19;20033;-77
2022/05/13 04:27:25;;;;;;;12.18;3.15;;;;;;;11.39;95.49;101893.53;7372034;19;20011;-77
2022/05/13 04:29:55;;;;;;;9.23;3.28;;;;;;;11.34;95.66;101887.28;7372759;19;20011;-76
2022/05/13 04:32:28;;;;;;;12.68;3.78;;;;;;;11.35;96.06;101891.69;7374352;19;20035;-76
2022/05/13 04:35:01;;;;;;;9.45;3.00;;;;;;;11.42;96.59;101883.13;7374823;19;21011;-77
2022/05/13 04:37:31;;;;;;;10.75;3.33;;;;;;;11.44;96.70;101889.25;7370624;19;20014;-77
2022/05/13 04:40:03;;;;;;;10.80;3.97;;;;;;;11.54;96.68;101894.75;7370075;19;20106;-76
2022/05/13 04:45:16;;;;;;;13.73;3.67;;;;;;;11.66;96.90;101906.47;7372399;19;20020;-77
2022/05/13 04:50:28;;;;;;;9.75;3.40;;;;;;;11.76;97.08;101918.13;7372048;19;20370;-77
2022/05/13 04:52:57;;;;;;;15.35;3.92;;;;;;;11.80;96.91;101914.75;7364759;19;20057;-75
2022/05/13 04:55:30;;;;;;;11.98;3.55;;;;;;;11.87;96.64;101927.19;7370655;19;20029;-76
2022/05/13 04:58:00;;;;;;;11.25;3.88;;;;;;;11.91;96.45;101922.91;7369553;19;20066;-77
2022/05/13 05:00:31;;;;;;;11.77;3.75;;;;;;;11.95;96.57;101941.41;7373436;19;20023;-76
2022/05/13 05:03:01;;;;;;;15.02;3.38;;;;;;;11.99;95.39;101945.91;7373371;19;20010;-76
2022/05/13 05:05:31;;;;;;;10.30;3.17;;;;;;;12.09;95.23;101941.75;7367478;19;20018;-76
2022/05/13 05:08:04;;;;;;;8.73;3.58;;;;;;;12.17;94.11;101939.31;7368779;19;20506;-72
2022/05/13 05:10:36;;;;;;;9.13;2.97;;;;;;;12.22;92.45;101935.06;7367296;19;20009;-70
2022/05/13 05:13:07;;;;;;;9.57;3.60;;;;;;;12.25;90.02;101943.03;7371615;19;20006;-70
2022/05/13 05:15:39;;;;;;;10.32;2.92;;;;;;;12.32;89.92;101942.31;7370819;19;20514;-68
2022/05/13 05:18:09;;;;;;;8.38;3.00;;;;;;;12.38;88.72;101942.47;7369966;19;20014;-70
2022/05/13 05:20:39;;;;;;;11.23;3.17;;;;;;;12.42;88.41;101944.31;7371991;19;20043;-70
2022/05/13 05:23:15;;;;;;;10.57;2.72;;;;;;;12.57;86.65;101944.63;7378124;19;20007;-69
2022/05/13 05:25:48;;;;;;;11.40;2.78;;;;;;;12.52;86.30;101951.53;7376370;19;20013;-69
2022/05/13 05:28:26;;;;;;;7.38;2.47;;;;;;;12.62;86.68;101955.25;7374414;19;20035;-69
2022/05/13 05:30:56;;;;;;;11.68;3.13;;;;;;;12.69;86.40;101962.44;7374165;19;20018;-69
2022/05/13 05:33:27;;;;;;;8.60;2.65;;;;;;;12.74;85.95;101953.78;7374905;19;20010;-69
2022/05/13 05:35:57;;;;;;;8.10;2.63;;;;;;;12.80;85.24;101960.94;7375712;19;20037;-69
2022/05/13 05:38:27;;;;;;;5.57;2.75;;;;;;;12.88;85.36;101962.00;7372999;19;20068;-69
2022/05/13 05:41:00;;;;;;;9.30;3.03;;;;;;;12.96;85.04;101968.31;7377189;19;20370;-70
2022/05/13 05:43:31;;;;;;;8.70;2.40;;;;;;;12.94;84.97;101967.41;7375342;19;20014;-69
2022/05/13 05:46:01;;;;;;;7.57;2.60;;;;;;;13.07;85.49;101969.44;7374106;19;20007;-70
2022/05/13 05:48:32;;;;;;;13.77;3.10;;;;;;;13.18;83.96;101971.44;7373326;19;20087;-76
2022/05/13 05:51:02;;;;;;;10.68;3.03;;;;;;;13.11;83.16;101980.91;7369492;19;20014;-77
2022/05/13 05:59:10;;;;;;;8.15;2.53;;;;;;;13.33;80.82;101987.56;7372987;19;20018;-76
2022/05/13 06:01:40;;;;;;;8.20;3.10;;;;;;;13.37;79.73;101974.47;7373046;19;20015;-70
2022/05/13 06:04:11;;;;;;;8.52;3.08;;;;;;;13.26;78.50;101986.53;7373973;19;20011;-76
2022/05/13 06:06:41;;;;;;;9.27;2.55;;;;;;;13.32;78.48;101984.03;7370949;19;20426;-76
2022/05/13 06:09:11;;;;;;;9.30;2.38;;;;;;;13.40;78.62;101995.63;7376260;19;20014;-69
2022/05/13 06:11:43;;;;;;;8.40;2.53;;;;;;;13.49;79.07;102000.19;7372970;19;23518;-70
2022/05/13 06:14:13;;;;;;;6.63;2.40;;;;;;;13.63;77.83;101997.78;7374045;19;20015;-75
2022/05/13 06:16:43;;;;;;;8.13;2.38;;;;;;;13.76;77.31;102005.06;7369318;19;20018;-76
2022/05/13 06:19:13;;;;;;;8.38;3.33;;;;;;;13.67;77.20;102004.88;7377153;19;20055;-75
2022/05/13 06:21:43;;;;;;;11.10;2.63;;;;;;;13.77;77.43;102000.69;7375971;19;20011;-69
2022/05/13 06:24:13;;;;;;;8.75;2.60;;;;;;;13.78;76.37;102013.00;7376514;19;20388;-68
2022/05/13 06:26:48;;;;;;;13.02;3.10;;;;;;;13.78;75.88;102008.63;7373961;19;20014;-75
2022/05/13 06:29:20;;;;;;;11.05;2.97;;;;;;;13.77;74.74;102014.75;7384173;19;20035;-75
2022/05/13 06:31:50;;;;;;;7.43;2.25;;;;;;;14.10;73.06;102010.94;7383325;19;20035;-68
2022/05/13 06:34:21;;;;;;;9.43;2.35;;;;;;;14.21;71.71;102006.75;7385785;19;20018;-68
2022/05/13 06:36:53;;;;;;;6.15;2.20;;;;;;;14.17;70.85;101997.00;7382231;19;21366;-69
2022/05/13 06:39:23;;;;;;;7.45;1.98;;;;;;;14.87;71.19;102006.91;7382068;19;20014;-68
2022/05/13 06:41:56;;;;;;;6.55;2.42;;;;;;;15.11;68.63;102005.47;7377880;19;20020;-68
2022/05/13 06:44:26;;;;;;;9.57;2.38;;;;;;;15.64;67.60;102003.50;7376003;19;20478;-75
2022/05/13 06:46:56;;;;;;;7.22;2.65;;;;;;;15.84;66.82;102003.69;7375817;19;20363;-75
2022/05/13 06:49:26;;;;;;;5.25;2.15;;;;;;;16.00;66.30;102009.16;7376433;19;20039;-76
2022/05/13 06:52:00;;;;;;;6.82;2.13;;;;;;;15.52;65.51;102003.34;7369631;19;20483;-76
2022/05/13 06:54:51;;;;;;;7.28;3.15;;;;;;;15.56;66.11;102005.16;7379084;19;20019;-76
2022/05/13 06:57:24;;;;;;;10.80;2.47;;;;;;;15.96;64.63;102010.00;7378833;19;20017;-76
2022/05/13 06:59:55;;;;;;;5.05;2.20;;;;;;;15.91;64.24;102010.81;7378424;19;20014;-75
2022/05/13 07:02:27;;;;;;;5.88;2.25;;;;;;;16.04;63.67;102023.31;7378819;19;20506;-69
2022/05/13 07:04:57;;;;;;;7.60;2.40;;;;;;;16.12;63.87;102018.09;7375614;19;20021;-68
2022/05/13 07:07:28;;;;;;;5.93;2.20;;;;;;;16.49;63.37;102021.94;7379230;19;20010;-75
2022/05/13 07:09:58;;;;;;;8.30;2.35;;;;;;;16.18;62.96;102026.97;7380138;19;20022;-75
2022/05/13 07:12:31;;;;;;;10.63;2.58;;;;;;;16.14;62.34;102032.22;7379835;19;20011;-75
2022/05/13 07:15:03;;;;;;;12.23;2.53;;;;;;;16.41;63.79;102029.81;7379164;19;20100;-75
2022/05/13 07:17:33;;;;;;;5.78;1.98;;;;;;;16.29;63.25;102035.00;7377490;19;20043;-76
2022/05/13 07:20:03;;;;;;;8.93;2.75;;;;;;;15.82;64.07;102034.53;7380870;19;20014;-69
2022/05/13 07:22:34;;;;;;;7.53;2.60;;;;;;;15.96;63.31;102049.69;7379057;19;20453;-68
2022/05/13 07:25:04;;;;;;;8.80;2.70;;;;;;;16.00;64.35;102043.56;7380164;19;20014;-68
2022/05/13 07:27:37;;;;;;;6.20;2.63;;;;;;;15.92;64.56;102045.22;7380249;19;20006;-76
2022/05/13 07:30:08;;;;;;;8.13;2.47;;;;;;;16.19;63.85;102047.28;7374603;19;20013;-69
2022/05/13 07:32:39;;;;;;;6.25;2.15;;;;;;;16.40;63.30;102043.94;7373423;19;20097;-71
2022/05/13 07:35:11;;;;;;;8.18;2.40;;;;;;;16.49;63.55;102048.41;7368290;19;20014;-71
2022/05/13 07:37:41;;;;;;;9.20;2.28;;;;;;;16.89;62.94;102049.59;7370177;19;20029;-77
2022/05/13 07:43:03;;;;;;;6.80;2.40;;;;;;;15.79;65.06;102067.13;7372677;19;20010;-74
2022/05/13 07:45:33;;;;;;;10.98;2.83;;;;;;;15.86;64.68;102058.41;7372964;19;20018;-73
2022/05/13 07:48:04;;;;;;;33.78;10.00;;;;;;;16.07;64.92;102059.50;7370068;19;20046;-67
2022/05/13 07:50:33;;;;;;;9.93;2.40;;;;;;;16.04;62.89;102065.66;7368019;19;20018;-67
2022/05/13 07:53:04;;;;;;;24.52;5.82;;;;;;;16.31;64.05;102060.63;7368996;19;20452;-68
2022/05/13 07:55:34;;;;;;;7.90;2.40;;;;;;;16.72;63.98;102061.84;7375267;19;20018;-69
2022/05/13 07:58:07;;;;;;;78.22;18.55;;;;;;;16.35;68.84;102065.06;7371059;19;20044;-68
2022/05/13 08:00:38;;;;;;;16.77;4.82;;;;;;;16.73;63.79;102071.56;7371502;19;20049;-73
2022/05/13 08:03:11;;;;;;;57.97;15.70;;;;;;;16.87;66.47;102064.59;7373772;19;20037;-75
2022/05/13 08:05:43;;;;;;;229.50;50.90;;;;;;;16.74;71.97;102071.56;7370998;19;20045;-76
2022/05/13 08:08:16;;;;;;;11.75;3.65;;;;;;;17.10;63.16;102072.69;7370979;19;20017;-78
2022/05/13 08:10:49;;;;;;;9.15;2.45;;;;;;;17.26;60.65;102067.50;7373912;19;20480;-75
2022/05/13 08:13:22;;;;;;;8.60;3.17;;;;;;;16.73;60.52;102082.16;7374714;19;20007;-76
2022/05/13 08:15:52;;;;;;;6.78;2.40;;;;;;;17.52;59.64;102064.09;7377276;19;20371;-77
2022/05/13 08:18:24;;;;;;;5.80;2.05;;;;;;;17.32;57.99;102064.00;7375865;19;20006;-77
2022/05/13 08:20:54;;;;;;;9.50;2.30;;;;;;;16.85;59.57;102061.06;7376869;19;20515;-75
2022/05/13 08:23:24;;;;;;;10.15;2.25;;;;;;;17.45;58.48;102064.94;7377332;19;20017;-74
2022/05/13 08:25:54;;;;;;;8.50;2.28;;;;;;;17.69;59.23;102069.44;7377557;19;20035;-69
2022/05/13 08:28:29;;;;;;;10.00;2.67;;;;;;;18.05;58.85;102066.91;7377025;19;20035;-68
2022/05/13 08:31:02;;;;;;;10.05;3.33;;;;;;;17.76;58.20;102069.47;7372824;19;20471;-73
2022/05/13 08:33:32;;;;;;;6.47;2.03;;;;;;;17.49;57.19;102075.56;7375158;19;20261;-74
2022/05/13 08:36:04;;;;;;;7.93;2.65;;;;;;;17.39;58.95;102088.78;7374286;19;20454;-75
2022/05/13 08:38:40;;;;;;;10.63;2.47;;;;;;;16.93;59.46;102084.06;7374415;19;20077;-71
2022/05/13 08:41:24;;;;;;;;;;;;;;;17.18;58.80;102089.53;7372079;19;20032;-73
2022/05/13 08:44:04;;;;;;;7.90;2.60;;;;;;;16.39;59.80;102095.09;7378152;19;19911;-73
2022/05/13 08:46:38;;;;;;;6.45;2.17;;;;;;;17.21;59.76;102094.84;7376745;19;20034;-74
2022/05/13 08:49:33;;;;;;;4.72;2.55;;;;;;;17.40;59.52;102094.09;7373965;19;20015;-75
2022/05/13 08:55:10;;;;;;;5.47;2.30;;;;;;;17.78;57.49;102099.56;7374427;19;20034;-76
2022/05/13 08:57:44;;;;;;;7.38;2.53;;;;;;;18.15;57.73;102099.66;7376582;19;20015;-74
2022/05/13 09:00:21;;;;;;;8.00;2.50;;;;;;;18.60;56.67;102097.09;7377990;19;20011;-74
2022/05/13 09:02:58;;;;;;;10.30;3.35;;;;;;;18.29;55.85;102105.88;7372563;19;20441;-73
2022/05/13 09:05:30;;;;;;;8.82;3.03;;;;;;;17.43;57.64;102117.06;7377154;19;20296;-76
2022/05/13 09:08:02;;;;;;;9.00;3.20;;;;;;;17.59;58.13;102118.94;7376156;19;20014;-76
2022/05/13 09:10:34;;;;;;;7.50;3.22;;;;;;;17.98;59.41;102119.09;7374524;19;20010;-76
2022/05/13 09:13:10;;;;;;;8.90;3.33;;;;;;;18.47;58.31;102124.50;7376901;19;20100;-78
2022/05/13 09:15:49;;;;;;;6.15;2.70;;;;;;;17.95;58.73;102119.06;7377237;19;20587;-74
2022/05/13 09:18:26;;;;;;;6.28;2.38;;;;;;;18.08;59.26;102127.97;7374946;19;20015;-78
2022/05/13 09:20:59;;;;;;;7.13;2.50;;;;;;;17.58;58.57;102127.78;7371761;19;20050;-77
2022/05/13 09:23:29;;;;;;;8.18;2.92;;;;;;;17.81;57.78;102123.44;7372270;19;20027;-76
2022/05/13 09:26:10;;;;;;;12.63;3.10;;;;;;;18.08;58.16;102129.75;7370707;19;20010;-77
2022/05/13 09:29:12;;;;;;;8.32;2.80;;;;;;;18.33;57.65;102136.00;7372661;19;20508;-76
2022/05/13 09:31:46;;;;;;;20.63;3.05;;;;;;;17.93;57.67;102128.81;7372846;19;20014;-76
2022/05/13 09:34:34;;;;;;;11.15;2.90;;;;;;;17.96;57.92;102142.09;7368781;19;20449;-75
2022/05/13 09:37:12;;;;;;;9.73;3.00;;;;;;;18.77;57.67;102128.06;7365754;19;20023;-73
2022/05/13 09:39:46;;;;;;;8.07;2.60;;;;;;;18.89;56.16;102128.06;7371001;19;20035;-77
2022/05/13 09:42:27;;;;;;;9.50;2.92;;;;;;;19.19;55.00;102122.72;7368722;19;20010;-75
2022/05/13 09:45:21;;;;;;;10.98;3.20;;;;;;;18.75;53.60;102121.88;7375488;19;20021;-73
2022/05/13 09:48:10;;;;;;;3.97;2.50;;;;;;;18.97;55.13;102128.94;7372757;19;20367;-72
2022/05/13 09:50:44;;;;;;;10.05;3.17;;;;;;;19.21;53.87;102130.69;7374074;19;20018;-75
2022/05/13 09:53:29;;;;;;;;;;;;;;;18.96;53.12;102135.16;7377019;19;20007;-75
2022/05/13 09:56:02;;;;;;;10.10;2.67;;;;;;;19.16;53.57;102138.69;7383295;19;19914;-71
2022/05/13 09:58:36;;;;;;;9.25;2.80;;;;;;;18.67;54.70;102139.63;7385311;19;20010;-71
2022/05/13 10:01:10;;;;;;;11.70;3.20;;;;;;;19.49;54.45;102126.19;7383466;19;20752;-72
2022/05/13 10:03:44;;;;;;;11.68;2.92;;;;;;;19.24;53.76;102136.88;7387197;19;20022;-75
2022/05/13 10:06:23;;;;;;;8.82;2.85;;;;;;;19.16;53.61;102138.69;7386699;19;20010;-72
2022/05/13 10:13:57;;;;;;;10.68;3.60;;;;;;;19.78;52.34;102126.97;7386298;19;20002;-75
2022/05/13 10:14:43;;;;;;;11.55;2.95;;;;;;;18.98;52.62;102140.47;7385940;19;20476;-74
2022/05/13 10:17:23;;;;;;;10.32;2.78;;;;;;;19.55;51.60;102147.50;7383732;19;20538;-73
2022/05/13 10:19:59;;;;;;;9.35;2.60;;;;;;;19.62;50.82;102141.25;7384539;19;20026;-75
2022/05/13 10:22:37;;;;;;;6.45;2.80;;;;;;;20.26;50.37;102140.94;7385405;19;20349;-74
2022/05/13 10:25:15;;;;;;;10.25;3.10;;;;;;;19.88;51.40;102131.34;7385569;19;20563;-72
2022/05/13 10:27:53;;;;;;;11.57;2.75;;;;;;;19.90;49.15;102129.56;7383437;19;20019;-73
2022/05/13 10:30:34;;;;;;;6.45;2.90;;;;;;;19.86;50.59;102133.16;7382538;19;20007;-71
2022/05/13 10:33:09;;;;;;;4.85;2.35;;;;;;;19.46;52.57;102136.84;7385307;19;20011;-73
2022/05/13 10:35:49;;;;;;;6.25;2.15;;;;;;;19.39;50.35;102135.97;7384731;19;20074;-75
2022/05/13 10:38:30;;;;;;;9.65;2.53;;;;;;;19.48;50.91;102143.03;7382795;19;20098;-73
2022/05/13 10:41:14;;;;;;;5.57;2.80;;;;;;;19.54;50.65;102145.72;7383646;19;20484;-72
2022/05/13 10:43:51;;;;;;;5.28;2.20;;;;;;;19.56;50.85;102143.94;7378261;19;20014;-73
2022/05/13 10:46:29;;;;;;;6.10;2.40;;;;;;;19.80;50.49;102127.84;7380916;19;20254;-72
2022/05/13 10:49:22;;;;;;;8.32;2.75;;;;;;;19.02;51.37;102140.47;7381748;19;20340;-72
2022/05/13 10:52:03;;;;;;;5.47;2.45;;;;;;;19.52;50.30;102147.50;7383263;19;20010;-73
2022/05/13 10:54:43;;;;;;;7.63;2.60;;;;;;;19.17;51.73;102144.88;7380157;19;20003;-74
2022/05/13 10:57:27;;;;;;;6.53;2.67;;;;;;;19.53;50.53;102142.19;7379616;19;20006;-75
2022/05/13 11:00:12;;;;;;;8.88;2.83;;;;;;;19.57;51.65;102143.06;7383264;19;20002;-75
2022/05/13 11:03:14;;;;;;;5.85;2.35;;;;;;;19.87;49.74;102145.56;7381072;19;20395;-75
2022/05/13 11:05:58;;;;;;;8.52;2.40;;;;;;;19.64;49.84;102135.94;7379285;19;20015;-73
2022/05/13 11:08:40;;;;;;;;;;;;;;;20.19;49.91;102131.19;7384296;19;20011;-73
2022/05/13 11:11:30;;;;;;;8.85;2.50;;;;;;;20.06;49.44;102132.16;7379765;19;20204;-73
2022/05/13 11:14:09;;;;;;;5.45;2.05;;;;;;;20.07;49.83;102131.28;7384131;19;20040;-74
2022/05/13 11:16:49;;;;;;;9.48;2.30;;;;;;;20.08;48.54;102127.72;7381461;19;20035;-75
2022/05/13 11:19:27;;;;;;;5.25;2.13;;;;;;;19.46;49.19;102126.19;7382286;19;20010;-73
2022/05/13 11:22:05;;;;;;;6.97;2.70;;;;;;;19.71;50.23;102125.25;7383199;19;20476;-73
2022/05/13 11:28:08;;;;;;;7.55;2.65;;;;;;;19.28;51.90;102141.31;7382783;19;20007;-73
2022/05/13 11:30:45;;;;;;;7.20;2.70;;;;;;;19.38;51.76;102143.94;7384850;19;20002;-73
2022/05/13 11:33:30;;;;;;;7.85;2.72;;;;;;;19.55;51.45;102136.84;7385742;19;20014;-72
2022/05/13 11:36:21;;;;;;;6.72;2.60;;;;;;;19.96;52.10;102143.75;7384392;19;20421;-72
2022/05/13 11:39:12;;;;;;;10.27;2.85;;;;;;;20.33;50.58;102134.66;7384509;19;20010;-74
2022/05/13 11:42:01;;;;;;;9.82;2.55;;;;;;;20.61;50.61;102135.38;7388279;19;20017;-74
2022/05/13 11:44:52;;;;;;;7.45;2.85;;;;;;;20.67;49.64;102135.34;7387666;19;20047;-73
2022/05/13 11:47:33;;;;;;;9.45;2.70;;;;;;;20.03;50.16;102141.06;7386537;19;20490;-73
2022/05/13 11:50:03;;;;;;;9.93;2.60;;;;;;;20.41;51.37;102142.66;7382677;19;20006;-73
2022/05/13 11:52:53;;;;;;;9.68;2.88;;;;;;;20.42;51.33;102147.97;7377270;19;20373;-74
2022/05/13 11:55:48;;;;;;;6.18;2.53;;;;;;;20.60;50.88;102138.06;7383468;19;20272;-74
2022/05/13 11:58:49;;;;;;;7.60;2.38;;;;;;;20.69;49.31;102138.00;7380918;19;20018;-73
2022/05/13 12:01:48;;;;;;;8.93;2.72;;;;;;;20.69;50.18;102148.66;7379914;19;20013;-73
2022/05/13 12:04:36;;;;;;;9.98;2.72;;;;;;;20.63;48.18;102159.38;7371781;19;20494;-73
2022/05/13 12:07:29;;;;;;;7.82;2.45;;;;;;;20.28;49.09;102147.13;7380284;19;20011;-74
2022/05/13 12:10:02;;;;;;;7.65;2.63;;;;;;;20.43;48.74;102144.41;7381683;19;20108;-74
2022/05/13 12:13:10;;;;;;;9.85;3.45;;;;;;;20.00;49.65;102140.19;7381523;19;20017;-72
2022/05/13 12:15:53;;;;;;;11.70;2.83;;;;;;;20.95;47.99;102151.06;7377018;19;21038;-73
2022/05/13 12:18:35;;;;;;;7.15;2.50;;;;;;;20.45;47.33;102153.28;7380844;19;20042;-73
2022/05/13 12:21:22;;;;;;;6.00;2.15;;;;;;;20.56;47.74;102154.09;7377406;19;20508;-74
2022/05/13 12:23:57;;;;;;;10.55;2.78;;;;;;;21.05;47.47;102156.31;7382765;19;20051;-73
2022/05/13 12:27:11;;;;;;;8.32;2.60;;;;;;;20.76;47.38;102158.38;7381234;19;20026;-72
2022/05/13 12:30:02;;;;;;;5.72;2.30;;;;;;;20.97;47.13;102160.84;7379350;19;20510;-73
2022/05/13 12:32:45;;;;;;;5.82;2.75;;;;;;;20.74;46.70;102170.84;7380340;19;20015;-75
2022/05/13 12:38:10;;;;;;;10.35;2.65;;;;;;;20.82;46.95;102158.28;7378241;19;20014;-73